Time;durP1;ratioP1;P1;durP2;ratioP2;P2;SDS_P1;SDS_P2;PMS_P1;PMS_P2;Temp;Humidity;BMP_temperature;BMP_pressure;BME280_temperature;BME280_humidity;BME280_pressure;Samples;Min_cycle;Max_cycle;Signal;HPM_P1;HPM_P2
2023/04/20 00:00:29;;;;;;;7.63;4.03;;;;;;;;;;4998259;28;20184;-70
2023/04/20 00:02:55;;;;;;;9.63;4.40;;;;;;;;;;5016157;28;20184;-68
2023/04/20 00:05:22;;;;;;;9.00;4.13;;;;;;;;;;5016008;28;20247;-70
2023/04/20 00:07:48;;;;;;;5.67;3.87;;;;;;;;;;5015372;28;20202;-69
2023/04/20 00:10:14;;;;;;;4.93;4.10;;;;;;;;;;5015991;28;20203;-70
2023/04/20 00:12:43;;;;;;;8.43;4.43;;;;;;;;;;4998113;28;20233;-70
2023/04/20 00:15:09;;;;;;;10.00;4.73;;;;;;;;;;5015733;28;20186;-70
2023/04/20 00:17:37;;;;;;;8.90;4.10;;;;;;;;;;4997691;28;20249;-70
2023/04/20 00:20:04;;;;;;;4.03;3.50;;;;;;;;;;5015501;28;20230;-70
2023/04/20 00:22:29;;;;;;;5.73;4.10;;;;;;;;;;5015534;28;20172;-70
2023/04/20 00:24:56;;;;;;;7.03;4.30;;;;;;;;;;5015512;28;20341;-70
2023/04/20 00:27:21;;;;;;;7.67;4.07;;;;;;;;;;5014938;28;20206;-70
2023/04/20 00:29:47;;;;;;;9.40;4.00;;;;;;;;;;4997422;28;20184;-70
2023/04/20 00:32:13;;;;;;;7.87;4.00;;;;;;;;;;4996494;28;20642;-70
2023/04/20 00:34:40;;;;;;;11.67;4.17;;;;;;;;;;4997394;28;20176;-70
2023/04/20 00:37:05;;;;;;;6.53;4.10;;;;;;;;;;4997775;28;20209;-70
2023/04/20 00:39:31;;;;;;;8.53;3.80;;;;;;;;;;5014806;28;20179;-70
2023/04/20 00:42:07;;;;;;;10.23;4.77;;;;;;;;;;5014799;28;20242;-70
2023/04/20 00:44:33;;;;;;;11.27;5.30;;;;;;;;;;5014926;28;20190;-70
2023/04/20 00:47:00;;;;;;;13.10;4.73;;;;;;;;;;4997138;28;20283;-70
2023/04/20 00:49:28;;;;;;;10.27;4.30;;;;;;;;;;5014937;28;20642;-70
2023/04/20 00:51:54;;;;;;;6.67;4.40;;;;;;;;;;5014658;28;20198;-70
2023/04/20 00:54:21;;;;;;;5.73;4.53;;;;;;;;;;4997069;28;20234;-69
2023/04/20 00:56:47;;;;;;;10.53;4.77;;;;;;;;;;4996830;28;20219;-70
2023/04/20 00:59:13;;;;;;;11.80;4.70;;;;;;;;;;5014612;28;20245;-70
2023/04/20 01:01:40;;;;;;;10.43;4.30;;;;;;;;;;4996908;28;20651;-70
2023/04/20 01:04:06;;;;;;;14.63;4.70;;;;;;;;;;4996891;28;20330;-70
2023/04/20 01:06:33;;;;;;;4.60;3.20;;;;;;;;;;5014766;28;20686;-70
2023/04/20 01:08:59;;;;;;;5.17;3.40;;;;;;;;;;5014912;28;20544;-70
2023/04/20 01:11:25;;;;;;;9.53;4.20;;;;;;;;;;4997188;28;20273;-70
2023/04/20 01:13:51;;;;;;;5.77;3.47;;;;;;;;;;5014643;28;20200;-71
2023/04/20 01:16:17;;;;;;;12.10;3.53;;;;;;;;;;5014336;28;20184;-70
2023/04/20 01:18:47;;;;;;;4.63;3.07;;;;;;;;;;5014549;28;20184;-71
2023/04/20 01:21:13;;;;;;;5.00;3.60;;;;;;;;;;5014250;28;20246;-71
2023/04/20 01:23:39;;;;;;;11.33;4.10;;;;;;;;;;5014274;28;20620;-71
2023/04/20 01:26:09;;;;;;;5.77;3.20;;;;;;;;;;5014017;28;20712;-70
2023/04/20 01:28:35;;;;;;;5.47;2.77;;;;;;;;;;5014156;28;20226;-70
2023/04/20 01:31:02;;;;;;;10.30;4.00;;;;;;;;;;4996327;28;20184;-71
2023/04/20 01:33:28;;;;;;;7.07;3.30;;;;;;;;;;5014009;28;20581;-70
2023/04/20 01:35:54;;;;;;;5.83;3.90;;;;;;;;;;5014034;28;20211;-70
2023/04/20 01:38:21;;;;;;;9.57;3.83;;;;;;;;;;5014008;28;20203;-69
2023/04/20 01:40:47;;;;;;;8.60;3.70;;;;;;;;;;5014212;28;20180;-68
2023/04/20 01:43:14;;;;;;;7.87;3.83;;;;;;;;;;4996448;28;20254;-69
2023/04/20 01:45:40;;;;;;;9.47;3.77;;;;;;;;;;4996423;28;20677;-69
2023/04/20 01:48:06;;;;;;;10.20;4.07;;;;;;;;;;4996279;28;20214;-70
2023/04/20 01:50:32;;;;;;;6.03;3.83;;;;;;;;;;4996052;28;20642;-70
2023/04/20 01:52:58;;;;;;;5.87;3.63;;;;;;;;;;4995933;28;20649;-70
2023/04/20 01:55:24;;;;;;;6.73;4.13;;;;;;;;;;5013479;28;20176;-70
2023/04/20 01:57:50;;;;;;;7.47;3.60;;;;;;;;;;5013482;28;20607;-70
2023/04/20 02:00:16;;;;;;;7.30;3.70;;;;;;;;;;4996178;28;20183;-70
2023/04/20 02:02:42;;;;;;;8.43;3.93;;;;;;;;;;5014156;28;20230;-70
2023/04/20 02:05:08;;;;;;;4.37;3.47;;;;;;;;;;5013603;28;20207;-70
2023/04/20 02:07:35;;;;;;;12.27;4.10;;;;;;;;;;4995998;28;20222;-71
2023/04/20 02:10:01;;;;;;;5.10;3.40;;;;;;;;;;5013869;28;20251;-71
2023/04/20 02:12:27;;;;;;;5.60;3.17;;;;;;;;;;5013589;28;20175;-71
2023/04/20 02:14:53;;;;;;;12.10;5.57;;;;;;;;;;5013687;28;20194;-71
2023/04/20 02:17:19;;;;;;;7.73;4.70;;;;;;;;;;4995774;28;20241;-70
2023/04/20 02:19:45;;;;;;;7.23;3.63;;;;;;;;;;5013399;28;20215;-70
2023/04/20 02:22:11;;;;;;;8.20;3.50;;;;;;;;;;4995760;28;20184;-70
2023/04/20 02:24:37;;;;;;;8.57;4.40;;;;;;;;;;5013240;28;20258;-70
2023/04/20 02:27:03;;;;;;;9.03;4.37;;;;;;;;;;5013458;28;20282;-71
2023/04/20 02:29:29;;;;;;;8.13;3.67;;;;;;;;;;5014606;28;20230;-70
2023/04/20 02:31:55;;;;;;;7.70;3.30;;;;;;;;;;5013629;28;20172;-70
2023/04/20 02:34:21;;;;;;;5.03;3.20;;;;;;;;;;4996046;28;20180;-70
2023/04/20 02:36:47;;;;;;;4.17;3.03;;;;;;;;;;5013246;28;20210;-70
2023/04/20 02:39:13;;;;;;;6.20;3.30;;;;;;;;;;4995784;28;20199;-70
2023/04/20 02:41:40;;;;;;;4.93;3.20;;;;;;;;;;5013599;28;20203;-71
2023/04/20 02:44:05;;;;;;;4.17;3.20;;;;;;;;;;5013226;28;20180;-71
2023/04/20 02:46:31;;;;;;;7.53;3.70;;;;;;;;;;4995531;28;20223;-71
2023/04/20 02:48:57;;;;;;;5.23;3.40;;;;;;;;;;5013124;28;20187;-70
2023/04/20 02:51:23;;;;;;;7.37;3.33;;;;;;;;;;5013596;28;20230;-71
2023/04/20 02:53:49;;;;;;;6.60;3.10;;;;;;;;;;4995742;28;20176;-71
2023/04/20 02:56:15;;;;;;;7.40;3.67;;;;;;;;;;5017181;28;20646;-70
2023/04/20 02:58:41;;;;;;;6.63;3.60;;;;;;;;;;4999238;28;20188;-71
2023/04/20 03:01:07;;;;;;;6.17;3.60;;;;;;;;;;5016791;28;20187;-70
2023/04/20 03:03:33;;;;;;;5.67;3.63;;;;;;;;;;5016840;28;20184;-71
2023/04/20 03:05:59;;;;;;;4.00;3.10;;;;;;;;;;5016651;28;20200;-70
2023/04/20 03:08:25;;;;;;;3.83;3.07;;;;;;;;;;4999038;28;20204;-71
2023/04/20 03:10:51;;;;;;;7.57;3.27;;;;;;;;;;5016727;28;20175;-71
2023/04/20 03:13:17;;;;;;;4.83;3.07;;;;;;;;;;4998994;28;20176;-71
2023/04/20 03:15:43;;;;;;;5.17;3.20;;;;;;;;;;4999041;28;20206;-71
2023/04/20 03:18:09;;;;;;;6.90;3.93;;;;;;;;;;4998864;28;20204;-71
2023/04/20 03:20:35;;;;;;;4.67;3.60;;;;;;;;;;5016411;28;20182;-71
2023/04/20 03:23:01;;;;;;;6.93;3.70;;;;;;;;;;4998773;28;20180;-70
2023/04/20 03:25:28;;;;;;;10.90;4.27;;;;;;;;;;5016244;28;20204;-71
2023/04/20 03:27:54;;;;;;;8.53;3.87;;;;;;;;;;4998727;28;20250;-71
2023/04/20 03:30:20;;;;;;;8.70;4.30;;;;;;;;;;5016375;28;20175;-71
2023/04/20 03:32:46;;;;;;;6.47;4.23;;;;;;;;;;5016479;28;20180;-71
2023/04/20 03:35:12;;;;;;;9.23;4.70;;;;;;;;;;4998571;28;20658;-71
2023/04/20 03:37:38;;;;;;;7.17;4.37;;;;;;;;;;5016150;28;20200;-70
2023/04/20 03:40:05;;;;;;;10.17;4.17;;;;;;;;;;5016141;28;20183;-72
2023/04/20 03:42:31;;;;;;;13.33;3.60;;;;;;;;;;5016096;28;20176;-70
2023/04/20 03:44:57;;;;;;;5.60;3.77;;;;;;;;;;5016120;28;20287;-71
2023/04/20 03:47:23;;;;;;;6.97;4.10;;;;;;;;;;4998301;28;20238;-70
2023/04/20 03:49:49;;;;;;;9.33;4.10;;;;;;;;;;4998384;28;20187;-71
2023/04/20 03:52:15;;;;;;;6.53;3.70;;;;;;;;;;5015949;28;20229;-71
2023/04/20 03:54:41;;;;;;;6.17;4.10;;;;;;;;;;5015953;28;20176;-70
2023/04/20 03:57:07;;;;;;;8.30;4.17;;;;;;;;;;5015634;28;20215;-70
2023/04/20 03:59:33;;;;;;;6.53;4.23;;;;;;;;;;5016140;28;20190;-70
2023/04/20 04:02:00;;;;;;;13.23;4.43;;;;;;;;;;5016325;28;20180;-70
2023/04/20 04:04:26;;;;;;;6.40;4.00;;;;;;;;;;5015836;28;20248;-71
2023/04/20 04:06:52;;;;;;;7.20;4.17;;;;;;;;;;4997903;28;20228;-70
2023/04/20 04:09:18;;;;;;;8.70;4.17;;;;;;;;;;5015695;28;20176;-71
2023/04/20 04:11:44;;;;;;;6.80;4.30;;;;;;;;;;5015486;28;20186;-71
2023/04/20 04:14:10;;;;;;;7.43;4.37;;;;;;;;;;5015793;28;20226;-71
2023/04/20 04:16:36;;;;;;;9.00;4.10;;;;;;;;;;4997931;28;20203;-71
2023/04/20 04:19:02;;;;;;;6.63;4.47;;;;;;;;;;4997833;28;20180;-71
2023/04/20 04:21:28;;;;;;;11.77;4.47;;;;;;;;;;4997791;28;20176;-70
2023/04/20 04:26:27;;;;;;;4.53;3.87;;;;;;;;;;5014961;28;20761;-70
2023/04/20 04:28:54;;;;;;;8.83;4.20;;;;;;;;;;5016120;28;20216;-70
2023/04/20 04:31:20;;;;;;;6.67;3.70;;;;;;;;;;5016349;28;20176;-69
2023/04/20 04:33:46;;;;;;;9.20;4.30;;;;;;;;;;4998472;28;20184;-71
2023/04/20 04:36:16;;;;;;;8.70;4.17;;;;;;;;;;4998441;28;20204;-69
2023/04/20 04:38:45;;;;;;;13.80;4.43;;;;;;;;;;5016641;28;20206;-71
2023/04/20 04:41:11;;;;;;;10.63;4.40;;;;;;;;;;5003229;28;20191;-71
2023/04/20 04:43:38;;;;;;;6.83;4.00;;;;;;;;;;5018854;28;20234;-71
2023/04/20 04:46:12;;;;;;;8.33;4.57;;;;;;;;;;5017523;28;20299;-70
2023/04/20 04:48:39;;;;;;;7.87;4.17;;;;;;;;;;5000140;28;20179;-70
2023/04/20 04:51:05;;;;;;;11.37;4.80;;;;;;;;;;5018590;28;20189;-71
2023/04/20 04:53:31;;;;;;;5.90;4.70;;;;;;;;;;5001832;28;20179;-71
2023/04/20 04:55:57;;;;;;;7.77;4.60;;;;;;;;;;5018202;28;20274;-71
2023/04/20 04:58:23;;;;;;;8.13;4.30;;;;;;;;;;4997786;28;20669;-70
2023/04/20 05:00:50;;;;;;;7.97;4.20;;;;;;;;;;4998934;28;20643;-71
2023/04/20 05:03:16;;;;;;;4.40;3.70;;;;;;;;;;5016651;28;20180;-70
2023/04/20 05:05:42;;;;;;;5.97;4.40;;;;;;;;;;4998537;28;20212;-70
2023/04/20 05:08:08;;;;;;;8.93;4.10;;;;;;;;;;5016490;28;20180;-69
2023/04/20 05:10:34;;;;;;;5.23;4.73;;;;;;;;;;5015501;28;20263;-71
2023/04/20 05:13:00;;;;;;;7.00;4.50;;;;;;;;;;5015708;28;20182;-70
2023/04/20 05:15:26;;;;;;;5.50;4.23;;;;;;;;;;4998294;28;20549;-69
2023/04/20 05:17:52;;;;;;;7.83;4.80;;;;;;;;;;4997440;28;20206;-70
2023/04/20 05:20:19;;;;;;;8.83;5.10;;;;;;;;;;4997757;28;20653;-70
2023/04/20 05:22:45;;;;;;;4.93;3.93;;;;;;;;;;5015502;28;20196;-70
2023/04/20 05:25:11;;;;;;;6.30;4.20;;;;;;;;;;5003937;28;20215;-71
2023/04/20 05:27:37;;;;;;;7.60;4.70;;;;;;;;;;5004253;28;20646;-72
2023/04/20 05:30:03;;;;;;;6.77;4.73;;;;;;;;;;5018812;28;20247;-69
2023/04/20 05:32:29;;;;;;;4.13;3.70;;;;;;;;;;5016918;28;20207;-70
2023/04/20 05:34:57;;;;;;;5.50;4.30;;;;;;;;;;4998369;28;20207;-70
2023/04/20 05:37:23;;;;;;;6.97;5.03;;;;;;;;;;4998566;28;20187;-71
2023/04/20 05:39:48;;;;;;;6.00;4.40;;;;;;;;;;4998143;28;20190;-71
2023/04/20 05:42:14;;;;;;;8.37;4.83;;;;;;;;;;5015819;28;20234;-70
2023/04/20 05:44:42;;;;;;;5.87;5.03;;;;;;;;;;5014951;28;20231;-70
2023/04/20 05:47:08;;;;;;;7.13;4.70;;;;;;;;;;5015592;28;20677;-69
2023/04/20 05:49:34;;;;;;;8.90;4.93;;;;;;;;;;4997507;28;20172;-69
2023/04/20 05:52:01;;;;;;;8.73;5.20;;;;;;;;;;4997608;28;20187;-70
2023/04/20 05:54:27;;;;;;;5.97;5.20;;;;;;;;;;5015088;28;20745;-70
2023/04/20 05:56:53;;;;;;;10.40;5.60;;;;;;;;;;4997638;28;20668;-72
2023/04/20 05:59:20;;;;;;;7.20;5.47;;;;;;;;;;4997914;28;20190;-70
2023/04/20 06:01:46;;;;;;;5.23;4.73;;;;;;;;;;5015295;28;20175;-70
2023/04/20 06:04:11;;;;;;;5.47;4.83;;;;;;;;;;4997648;28;20211;-71
2023/04/20 06:06:37;;;;;;;8.00;5.40;;;;;;;;;;5016643;28;20204;-70
2023/04/20 06:09:04;;;;;;;7.20;5.20;;;;;;;;;;4999464;28;20180;-70
2023/04/20 06:11:30;;;;;;;8.00;5.60;;;;;;;;;;5018690;28;20179;-72
2023/04/20 06:13:56;;;;;;;10.20;5.40;;;;;;;;;;5000539;28;20203;-69
2023/04/20 06:16:22;;;;;;;10.23;5.20;;;;;;;;;;5018002;28;20188;-70
2023/04/20 06:18:48;;;;;;;6.47;5.27;;;;;;;;;;4999155;28;20222;-70
2023/04/20 06:21:16;;;;;;;7.43;5.10;;;;;;;;;;5017316;28;20176;-71
2023/04/20 06:23:43;;;;;;;6.03;5.00;;;;;;;;;;4996819;28;20184;-71
2023/04/20 06:26:09;;;;;;;6.47;5.23;;;;;;;;;;5013931;28;20306;-69
2023/04/20 06:28:35;;;;;;;6.77;5.50;;;;;;;;;;5014230;28;20176;-70
2023/04/20 06:31:02;;;;;;;6.73;5.40;;;;;;;;;;5000678;28;20180;-69
2023/04/20 06:33:28;;;;;;;7.30;4.90;;;;;;;;;;5019815;28;20180;-71
2023/04/20 06:35:55;;;;;;;5.30;4.20;;;;;;;;;;5000453;28;20227;-70
2023/04/20 06:38:21;;;;;;;7.40;5.73;;;;;;;;;;5000636;28;20564;-70
2023/04/20 06:40:47;;;;;;;7.20;5.13;;;;;;;;;;5000781;28;20610;-70
2023/04/20 06:43:13;;;;;;;7.00;5.50;;;;;;;;;;5001135;28;20191;-69
2023/04/20 06:45:39;;;;;;;6.80;5.03;;;;;;;;;;5018929;28;20211;-70
2023/04/20 06:48:06;;;;;;;7.57;5.47;;;;;;;;;;5018690;28;20172;-70
2023/04/20 06:50:32;;;;;;;9.13;6.80;;;;;;;;;;5018726;28;20200;-70
2023/04/20 06:52:57;;;;;;;8.43;6.10;;;;;;;;;;5018900;28;20685;-70
2023/04/20 06:55:24;;;;;;;8.03;5.53;;;;;;;;;;5018721;28;20208;-69
2023/04/20 06:57:50;;;;;;;7.73;5.43;;;;;;;;;;5019901;28;20180;-69
2023/04/20 07:00:16;;;;;;;7.73;4.97;;;;;;;;;;5020399;28;20262;-70
2023/04/20 07:02:46;;;;;;;9.60;5.60;;;;;;;;;;5019266;28;20187;-69
2023/04/20 07:05:12;;;;;;;9.03;5.53;;;;;;;;;;5000988;28;20242;-70
2023/04/20 07:07:39;;;;;;;8.67;4.77;;;;;;;;;;5018762;28;20172;-69
2023/04/20 07:10:06;;;;;;;6.77;3.57;;;;;;;;;;5000537;28;20180;-69
2023/04/20 07:12:33;;;;;;;13.87;5.80;;;;;;;;;;5018067;28;20187;-70
2023/04/20 07:14:59;;;;;;;6.23;4.43;;;;;;;;;;5002107;28;20208;-70
2023/04/20 07:17:28;;;;;;;7.57;5.13;;;;;;;;;;5003273;28;20183;-70
2023/04/20 07:19:55;;;;;;;12.23;7.67;;;;;;;;;;5018877;28;20180;-69
2023/04/20 07:22:20;;;;;;;10.70;7.00;;;;;;;;;;5018192;28;20215;-70
2023/04/20 07:24:46;;;;;;;12.50;7.00;;;;;;;;;;4999174;28;20273;-70
2023/04/20 07:27:12;;;;;;;6.93;5.13;;;;;;;;;;5019934;28;20191;-70
2023/04/20 07:29:38;;;;;;;5.97;4.70;;;;;;;;;;5007284;28;20180;-70
2023/04/20 07:32:05;;;;;;;8.50;5.53;;;;;;;;;;5023252;28;20280;-69
2023/04/20 07:34:31;;;;;;;5.47;4.17;;;;;;;;;;5018716;28;20238;-71
2023/04/20 07:36:57;;;;;;;6.90;6.20;;;;;;;;;;5001199;28;20214;-68
2023/04/20 07:39:26;;;;;;;7.03;5.47;;;;;;;;;;4999068;28;20241;-70
2023/04/20 07:41:52;;;;;;;6.80;5.63;;;;;;;;;;5016566;28;20176;-70
2023/04/20 07:44:17;;;;;;;10.40;6.57;;;;;;;;;;4998908;28;20204;-69
2023/04/20 07:46:43;;;;;;;7.33;6.60;;;;;;;;;;5017012;28;20207;-69
2023/04/20 07:49:09;;;;;;;6.03;5.10;;;;;;;;;;5017090;28;20557;-69
2023/04/20 07:51:35;;;;;;;6.13;5.50;;;;;;;;;;4999151;28;20670;-71
2023/04/20 07:54:01;;;;;;;7.23;5.30;;;;;;;;;;4998718;28;20250;-70
2023/04/20 07:56:27;;;;;;;8.73;5.17;;;;;;;;;;5016415;28;20180;-70
2023/04/20 07:58:53;;;;;;;7.53;5.80;;;;;;;;;;5016886;28;20638;-70
2023/04/20 08:01:23;;;;;;;6.67;4.90;;;;;;;;;;5016444;28;20677;-70
2023/04/20 08:03:49;;;;;;;6.37;4.73;;;;;;;;;;5016937;28;20183;-71
2023/04/20 08:06:15;;;;;;;6.43;4.47;;;;;;;;;;5017455;28;20636;-70
2023/04/20 08:08:41;;;;;;;8.13;5.77;;;;;;;;;;4998598;28;20187;-71
2023/04/20 08:11:07;;;;;;;6.20;5.60;;;;;;;;;;4998809;28;20179;-71
2023/04/20 08:13:36;;;;;;;11.90;5.57;;;;;;;;;;4998681;28;20624;-71
2023/04/20 08:16:02;;;;;;;8.97;5.53;;;;;;;;;;5015944;28;20226;-70
2023/04/20 08:18:29;;;;;;;6.53;5.10;;;;;;;;;;5017077;28;20180;-70
2023/04/20 08:20:55;;;;;;;4.70;3.57;;;;;;;;;;5016257;28;20219;-70
2023/04/20 08:23:26;;;;;;;6.37;5.20;;;;;;;;;;5016690;28;20180;-71
2023/04/20 08:25:52;;;;;;;5.17;4.67;;;;;;;;;;5016097;28;20689;-71
2023/04/20 08:28:18;;;;;;;7.27;5.43;;;;;;;;;;5002451;28;20673;-71
2023/04/20 08:30:45;;;;;;;7.47;4.90;;;;;;;;;;5019908;28;20175;-71
2023/04/20 08:33:12;;;;;;;6.87;4.63;;;;;;;;;;5019016;28;20251;-70
2023/04/20 08:35:38;;;;;;;5.47;4.60;;;;;;;;;;5018191;28;20199;-70
2023/04/20 08:38:04;;;;;;;5.93;4.10;;;;;;;;;;5017910;28;20180;-71
2023/04/20 08:40:30;;;;;;;7.03;5.60;;;;;;;;;;5018366;28;20245;-71
2023/04/20 08:42:56;;;;;;;7.33;5.20;;;;;;;;;;5018391;28;20180;-71
2023/04/20 08:45:22;;;;;;;6.13;5.07;;;;;;;;;;5018426;28;20782;-71
2023/04/20 08:47:49;;;;;;;6.20;5.17;;;;;;;;;;5021903;28;20255;-71
2023/04/20 08:50:15;;;;;;;6.90;4.53;;;;;;;;;;5023282;28;20175;-71
2023/04/20 08:52:41;;;;;;;7.00;4.23;;;;;;;;;;5021895;28;20236;-71
2023/04/20 08:55:08;;;;;;;5.57;4.80;;;;;;;;;;5024258;28;20215;-71
2023/04/20 08:57:34;;;;;;;6.20;5.23;;;;;;;;;;5021136;28;20182;-71
2023/04/20 09:00:00;;;;;;;5.43;4.93;;;;;;;;;;5022042;28;20176;-71
2023/04/20 09:02:26;;;;;;;4.93;4.13;;;;;;;;;;5018182;28;20175;-70
2023/04/20 09:05:02;;;;;;;8.93;5.90;;;;;;;;;;5017735;28;20204;-71
2023/04/20 09:07:28;;;;;;;6.03;5.40;;;;;;;;;;4999482;28;20180;-71
2023/04/20 09:09:58;;;;;;;7.13;5.90;;;;;;;;;;4999357;28;20180;-71
2023/04/20 09:12:24;;;;;;;6.73;5.30;;;;;;;;;;5016939;28;20541;-69
2023/04/20 09:14:52;;;;;;;6.13;5.53;;;;;;;;;;5016361;28;20196;-71
2023/04/20 09:17:19;;;;;;;6.47;4.97;;;;;;;;;;5016278;28;20187;-70
2023/04/20 09:19:45;;;;;;;6.30;5.07;;;;;;;;;;5016391;28;20175;-70
2023/04/20 09:22:11;;;;;;;9.67;5.83;;;;;;;;;;5016338;28;20246;-71
2023/04/20 09:24:38;;;;;;;6.77;5.17;;;;;;;;;;5001189;28;20211;-70
2023/04/20 09:27:16;;;;;;;7.97;5.80;;;;;;;;;;4997779;28;20172;-71
2023/04/20 09:29:42;;;;;;;5.93;4.93;;;;;;;;;;5015587;28;20180;-69
2023/04/20 09:32:19;;;;;;;6.27;5.30;;;;;;;;;;5015263;28;20179;-69
2023/04/20 09:34:45;;;;;;;8.60;5.93;;;;;;;;;;4998137;28;20704;-70
2023/04/20 09:37:14;;;;;;;9.10;6.50;;;;;;;;;;4998037;28;20176;-70
2023/04/20 09:39:42;;;;;;;8.13;6.07;;;;;;;;;;5014944;28;20172;-70
2023/04/20 09:42:10;;;;;;;8.53;6.23;;;;;;;;;;4997266;28;20274;-70
2023/04/20 09:44:38;;;;;;;8.50;5.90;;;;;;;;;;4996742;28;20195;-70
2023/04/20 09:47:04;;;;;;;10.47;8.20;;;;;;;;;;5014353;28;20208;-71
2023/04/20 09:49:31;;;;;;;8.23;7.20;;;;;;;;;;4997389;28;20225;-69
2023/04/20 09:51:57;;;;;;;12.23;6.80;;;;;;;;;;4997366;28;20180;-69
2023/04/20 09:54:23;;;;;;;17.63;10.00;;;;;;;;;;5014768;28;20198;-70
2023/04/20 09:56:50;;;;;;;11.23;8.57;;;;;;;;;;5015642;28;20176;-68
2023/04/20 09:59:18;;;;;;;13.60;10.53;;;;;;;;;;5015699;28;20238;-68
2023/04/20 10:01:45;;;;;;;15.90;10.17;;;;;;;;;;5015212;28;20199;-69
2023/04/20 10:04:13;;;;;;;17.03;11.80;;;;;;;;;;4996813;28;20668;-69
2023/04/20 10:06:39;;;;;;;12.23;8.13;;;;;;;;;;5015554;28;20199;-69
2023/04/20 10:09:07;;;;;;;10.60;9.50;;;;;;;;;;4999285;28;20758;-71
2023/04/20 10:11:33;;;;;;;11.40;10.20;;;;;;;;;;5016315;28;20207;-70
2023/04/20 10:14:01;;;;;;;12.07;10.17;;;;;;;;;;4998980;28;20186;-71
2023/04/20 10:16:27;;;;;;;11.37;10.10;;;;;;;;;;5014941;28;20175;-71
2023/04/20 10:18:57;;;;;;;11.80;9.27;;;;;;;;;;5014147;28;20183;-69
2023/04/20 10:21:23;;;;;;;10.20;6.83;;;;;;;;;;5014273;28;20187;-70
2023/04/20 10:23:49;;;;;;;7.43;6.33;;;;;;;;;;5013711;28;20183;-70
2023/04/20 10:26:16;;;;;;;7.13;6.17;;;;;;;;;;5036769;23;20242;-72
2023/04/20 10:28:43;;;;;;;9.60;7.77;;;;;;;;;;5035808;28;20171;-72
2023/04/20 10:31:12;;;;;;;7.53;6.80;;;;;;;;;;5035685;28;20170;-71
2023/04/20 10:33:48;;;;;;;7.50;6.73;;;;;;;;;;5036330;28;20245;-71
2023/04/20 10:36:21;;;;;;;7.13;6.43;;;;;;;;;;5035811;28;20225;-71
2023/04/20 10:38:47;;;;;;;8.57;7.63;;;;;;;;;;5035975;28;20163;-72
2023/04/20 10:41:14;;;;;;;8.73;7.53;;;;;;;;;;5018020;28;20217;-72
2023/04/20 10:43:43;;;;;;;7.73;6.23;;;;;;;;;;5035930;28;20267;-72
2023/04/20 10:46:16;;;;;;;6.63;5.93;;;;;;;;;;5035804;28;20218;-71
2023/04/20 10:48:52;;;;;;;9.77;5.40;;;;;;;;;;5018637;28;20179;-72
2023/04/20 10:51:18;;;;;;;9.67;5.67;;;;;;;;;;5035918;28;20517;-71
2023/04/20 10:53:44;;;;;;;6.97;5.90;;;;;;;;;;5036091;28;20175;-70
2023/04/20 10:56:10;;;;;;;6.23;5.50;;;;;;;;;;5017746;28;20230;-70
2023/04/20 10:58:36;;;;;;;10.97;5.63;;;;;;;;;;5017827;28;20183;-70
2023/04/20 11:01:03;;;;;;;6.67;4.80;;;;;;;;;;5036149;28;20183;-71
2023/04/20 11:03:30;;;;;;;5.37;4.83;;;;;;;;;;5035444;28;20180;-70
2023/04/20 11:06:00;;;;;;;5.77;5.17;;;;;;;;;;5016085;28;20218;-71
2023/04/20 11:08:36;;;;;;;6.03;4.73;;;;;;;;;;5046083;28;20179;-71
2023/04/20 11:11:02;;;;;;;6.50;4.40;;;;;;;;;;5049826;28;20181;-71
2023/04/20 11:13:29;;;;;;;8.03;4.30;;;;;;;;;;5048094;28;20536;-71
2023/04/20 11:15:55;;;;;;;4.30;3.33;;;;;;;;;;5038489;28;20222;-71
2023/04/20 11:18:21;;;;;;;6.17;3.80;;;;;;;;;;5039312;28;20175;-71
2023/04/20 11:20:54;;;;;;;4.40;3.10;;;;;;;;;;5037864;28;20187;-71
2023/04/20 11:23:21;;;;;;;5.17;3.63;;;;;;;;;;5020035;28;20186;-71
2023/04/20 11:25:55;;;;;;;4.67;4.03;;;;;;;;;;5018767;28;20223;-71
2023/04/20 11:28:21;;;;;;;4.30;3.90;;;;;;;;;;5037547;28;20210;-71
2023/04/20 11:30:48;;;;;;;5.00;4.50;;;;;;;;;;5037582;28;20254;-71
2023/04/20 11:33:14;;;;;;;2.93;2.63;;;;;;;;;;5040949;28;20174;-71
2023/04/20 11:35:41;;;;;;;4.63;3.67;;;;;;;;;;5047701;28;20199;-71
2023/04/20 11:38:07;;;;;;;3.37;3.07;;;;;;;;;;5047013;28;20183;-71
2023/04/20 11:40:34;;;;;;;5.27;3.77;;;;;;;;;;5045303;28;20190;-71
2023/04/20 11:43:00;;;;;;;5.27;4.00;;;;;;;;;;5038306;28;20203;-70
2023/04/20 11:45:27;;;;;;;4.53;3.77;;;;;;;;;;5019037;28;20214;-71
2023/04/20 11:47:56;;;;;;;6.67;5.07;;;;;;;;;;5036772;28;20225;-71
2023/04/20 11:50:23;;;;;;;4.23;3.43;;;;;;;;;;5018918;28;20191;-70
2023/04/20 11:52:49;;;;;;;4.10;3.70;;;;;;;;;;5018902;28;20271;-71
2023/04/20 11:55:15;;;;;;;4.30;3.90;;;;;;;;;;5036594;28;20215;-69
2023/04/20 11:57:42;;;;;;;6.33;4.27;;;;;;;;;;5036443;28;20186;-70
2023/04/20 12:00:08;;;;;;;7.33;4.00;;;;;;;;;;5036745;28;20262;-71
2023/04/20 12:02:34;;;;;;;4.17;3.60;;;;;;;;;;5019057;28;20658;-71
2023/04/20 12:05:01;;;;;;;3.97;3.67;;;;;;;;;;5018447;28;20218;-71
2023/04/20 12:07:27;;;;;;;4.20;3.80;;;;;;;;;;5018610;28;20203;-71
2023/04/20 12:09:53;;;;;;;3.93;3.60;;;;;;;;;;5036573;28;20268;-71
2023/04/20 12:12:19;;;;;;;4.33;3.93;;;;;;;;;;5018354;28;20175;-71
2023/04/20 12:14:45;;;;;;;4.13;3.73;;;;;;;;;;5018508;28;20183;-71
2023/04/20 12:17:11;;;;;;;5.60;4.27;;;;;;;;;;5036227;28;20290;-71
2023/04/20 12:19:36;;;;;;;5.73;3.90;;;;;;;;;;5018732;28;20222;-73
2023/04/20 12:22:03;;;;;;;4.33;3.93;;;;;;;;;;5018436;28;20194;-71
2023/04/20 12:24:29;;;;;;;6.40;3.37;;;;;;;;;;5036202;28;20171;-71
2023/04/20 12:26:56;;;;;;;4.37;3.23;;;;;;;;;;5035639;28;20337;-70
2023/04/20 12:29:22;;;;;;;9.43;4.10;;;;;;;;;;5035894;28;20177;-71
2023/04/20 12:31:48;;;;;;;6.67;3.60;;;;;;;;;;5018043;28;20291;-71
2023/04/20 12:34:14;;;;;;;4.33;3.77;;;;;;;;;;5017669;28;20186;-71
2023/04/20 12:36:40;;;;;;;6.63;4.10;;;;;;;;;;5017593;28;20293;-71
2023/04/20 12:39:06;;;;;;;4.30;3.70;;;;;;;;;;5035668;28;20600;-71
2023/04/20 12:41:33;;;;;;;3.80;3.40;;;;;;;;;;5017645;28;20179;-71
2023/04/20 12:43:59;;;;;;;3.23;2.93;;;;;;;;;;5018164;28;20237;-71
2023/04/20 12:46:25;;;;;;;3.20;2.87;;;;;;;;;;5017829;28;20219;-71
2023/04/20 12:48:51;;;;;;;4.47;3.37;;;;;;;;;;5035241;28;20676;-71
2023/04/20 12:51:16;;;;;;;2.90;2.70;;;;;;;;;;5017813;28;20183;-70
2023/04/20 12:53:42;;;;;;;4.77;3.70;;;;;;;;;;5035109;28;20179;-70
2023/04/20 12:56:08;;;;;;;4.87;2.90;;;;;;;;;;5017470;28;20230;-71
2023/04/20 12:58:34;;;;;;;4.63;3.30;;;;;;;;;;5035021;28;20180;-69
2023/04/20 13:01:00;;;;;;;4.73;3.57;;;;;;;;;;5017279;28;20183;-71
2023/04/20 13:03:26;;;;;;;4.57;4.13;;;;;;;;;;5017069;28;20201;-71
2023/04/20 13:05:52;;;;;;;4.87;4.10;;;;;;;;;;5035131;28;20321;-71
2023/04/20 13:08:18;;;;;;;4.60;4.20;;;;;;;;;;5035632;28;20196;-71
2023/04/20 13:10:44;;;;;;;15.00;4.63;;;;;;;;;;5035023;28;20175;-70
2023/04/20 13:13:11;;;;;;;5.13;3.80;;;;;;;;;;5035022;28;20171;-70
2023/04/20 13:15:37;;;;;;;4.53;4.13;;;;;;;;;;5034846;28;20241;-70
2023/04/20 13:18:03;;;;;;;13.37;3.77;;;;;;;;;;5017271;28;20653;-71
2023/04/20 13:20:29;;;;;;;7.60;4.10;;;;;;;;;;5017318;28;20174;-71
2023/04/20 13:22:59;;;;;;;3.50;3.20;;;;;;;;;;5035167;28;20231;-71
2023/04/20 13:25:26;;;;;;;5.47;4.23;;;;;;;;;;5035481;28;20199;-71
2023/04/20 13:27:56;;;;;;;5.10;4.10;;;;;;;;;;5035375;28;20180;-71
2023/04/20 13:30:23;;;;;;;5.50;4.30;;;;;;;;;;5018662;28;20186;-70
2023/04/20 13:32:49;;;;;;;5.30;4.70;;;;;;;;;;5018525;28;20213;-71
2023/04/20 13:35:15;;;;;;;7.43;4.60;;;;;;;;;;5018328;28;20179;-71
2023/04/20 13:37:42;;;;;;;6.77;4.03;;;;;;;;;;5035117;28;20182;-71
2023/04/20 13:40:08;;;;;;;8.00;4.93;;;;;;;;;;5017974;28;20556;-71
2023/04/20 13:42:34;;;;;;;5.93;4.57;;;;;;;;;;5034990;28;20222;-71
2023/04/20 13:45:00;;;;;;;4.63;3.90;;;;;;;;;;5036283;28;20179;-71
2023/04/20 13:47:27;;;;;;;6.10;4.33;;;;;;;;;;5035760;28;20219;-71
2023/04/20 13:49:52;;;;;;;6.53;5.20;;;;;;;;;;5036356;28;20176;-70
2023/04/20 13:52:18;;;;;;;7.47;5.77;;;;;;;;;;5035503;28;20186;-71
2023/04/20 13:54:44;;;;;;;4.43;3.70;;;;;;;;;;5017429;28;20179;-70
2023/04/20 13:57:10;;;;;;;5.83;4.57;;;;;;;;;;5017559;28;20680;-70
2023/04/20 13:59:36;;;;;;;7.93;6.10;;;;;;;;;;5017960;28;20214;-70
2023/04/20 14:02:02;;;;;;;9.03;5.73;;;;;;;;;;5034473;28;20584;-71
2023/04/20 14:04:29;;;;;;;8.97;4.57;;;;;;;;;;5034832;28;20179;-70
2023/04/20 14:06:55;;;;;;;6.13;5.13;;;;;;;;;;5035207;28;20233;-71
2023/04/20 14:09:21;;;;;;;10.47;4.50;;;;;;;;;;5035208;28;20175;-71
2023/04/20 14:11:46;;;;;;;5.20;4.53;;;;;;;;;;5035021;28;20179;-71
2023/04/20 14:14:12;;;;;;;5.83;5.13;;;;;;;;;;5017040;28;20646;-69
2023/04/20 14:16:43;;;;;;;5.23;3.67;;;;;;;;;;5034765;28;20743;-71
2023/04/20 14:19:09;;;;;;;5.43;4.70;;;;;;;;;;5034594;28;20266;-71
2023/04/20 14:21:35;;;;;;;7.17;4.53;;;;;;;;;;5034557;28;20214;-71
2023/04/20 14:24:01;;;;;;;5.90;4.70;;;;;;;;;;5038116;28;20320;-71
2023/04/20 14:26:27;;;;;;;5.87;4.77;;;;;;;;;;5038213;28;20691;-71
2023/04/20 14:28:53;;;;;;;5.77;3.63;;;;;;;;;;5018963;28;20557;-71
2023/04/20 14:31:20;;;;;;;5.80;4.50;;;;;;;;;;5034046;28;20658;-72
2023/04/20 14:33:46;;;;;;;4.43;3.90;;;;;;;;;;5016236;28;20189;-71
2023/04/20 14:36:12;;;;;;;5.97;5.27;;;;;;;;;;5017756;28;20242;-71
2023/04/20 14:38:38;;;;;;;5.70;5.10;;;;;;;;;;5046823;28;20183;-71